Time;durP1;ratioP1;P1;durP2;ratioP2;P2;SDS_P1;SDS_P2;PMS_P1;PMS_P2;Temp;Humidity;BMP_temperature;BMP_pressure;BME280_temperature;BME280_humidity;BME280_pressure;Samples;Min_cycle;Max_cycle;Signal;HPM_P1;HPM_P2
2023/12/11 00:01:43;;;;;;;;;5.00;5.00;;;;;21.59;45.39;99559.23;111998;1248;19354;-30
2023/12/11 00:04:11;;;;;;;;;7.00;7.00;;;;;21.60;45.21;99563.03;112088;1248;19601;-30
2023/12/11 00:06:38;;;;;;;;;7.00;7.00;;;;;21.59;45.04;99562.55;112135;1248;18677;-30
2023/12/11 00:09:06;;;;;;;;;4.00;4.00;;;;;21.59;45.17;99564.46;112019;1263;19373;-30
2023/12/11 00:11:33;;;;;;;;;7.00;6.00;;;;;21.60;45.08;99564.13;112047;1248;19624;-30
2023/12/11 00:14:01;;;;;;;;;7.00;5.00;;;;;21.59;45.06;99564.72;112034;1263;19973;-30
2023/12/11 00:16:28;;;;;;;;;6.00;5.00;;;;;21.58;44.98;99556.19;111982;1263;21121;-30
2023/12/11 00:18:55;;;;;;;;;7.00;7.00;;;;;21.59;44.95;99557.98;112103;1247;19602;-31
2023/12/11 00:21:23;;;;;;;;;5.00;5.00;;;;;21.58;45.08;99553.30;111954;1263;18581;-30
2023/12/11 00:23:50;;;;;;;;;4.00;4.00;;;;;21.59;45.06;99551.98;112108;1248;19273;-31
2023/12/11 00:26:18;;;;;;;;;7.00;5.00;;;;;21.58;44.94;99547.46;112020;1248;19458;-31
2023/12/11 00:28:47;;;;;;;;;4.00;4.00;;;;;21.57;44.94;99542.04;112126;1263;18601;-30
2023/12/11 00:31:14;;;;;;;;;7.00;5.67;;;;;21.59;45.01;99540.92;112131;1248;20888;-30
2023/12/11 00:33:42;;;;;;;;;5.00;4.67;;;;;21.58;44.90;99539.36;112017;1263;21162;-30
2023/12/11 00:36:09;;;;;;;;;5.00;5.00;;;;;21.58;44.95;99541.70;112118;1248;20252;-30
2023/12/11 00:38:37;;;;;;;;;4.00;4.00;;;;;21.58;45.02;99540.51;112043;1248;20773;-30
2023/12/11 00:41:04;;;;;;;;;5.00;4.67;;;;;21.58;44.86;99536.63;112108;1262;19708;-31
2023/12/11 00:43:32;;;;;;;;;5.00;5.00;;;;;21.58;44.79;99539.02;112087;1251;20102;-31
2023/12/11 00:45:59;;;;;;;;;5.00;5.00;;;;;21.58;44.80;99527.59;112074;1248;20762;-30
2023/12/11 00:48:26;;;;;;;;;5.00;5.00;;;;;21.58;44.62;99530.92;112094;1247;18614;-30
2023/12/11 00:50:54;;;;;;;;;4.00;4.00;;;;;21.57;44.83;99531.59;112112;1263;19846;-31
2023/12/11 00:53:21;;;;;;;;;5.00;4.00;;;;;21.57;44.98;99526.77;112078;1248;20781;-30
2023/12/11 00:55:49;;;;;;;;;5.00;5.00;;;;;21.57;44.70;99527.54;112108;1263;18985;-30
2023/12/11 00:58:16;;;;;;;;;7.00;5.00;;;;;21.58;44.86;99525.02;112133;1263;20237;-31
2023/12/11 01:00:43;;;;;;;;;7.00;4.67;;;;;21.57;44.73;99523.58;112116;1263;20797;-30
2023/12/11 01:03:11;;;;;;;;;5.00;5.00;;;;;21.56;44.57;99517.44;112136;1247;19632;-30
2023/12/11 01:05:38;;;;;;;;;5.00;4.00;;;;;21.56;44.82;99513.77;112076;1263;18613;-31
2023/12/11 01:08:07;;;;;;;;;8.00;5.00;;;;;21.56;44.80;99512.30;112148;1251;21975;-30
2023/12/11 01:10:34;;;;;;;;;4.33;4.33;;;;;21.55;44.70;99509.77;112201;1263;19708;-31
2023/12/11 01:13:02;;;;;;;;;7.00;5.00;;;;;21.56;44.67;99510.06;112070;1249;20127;-31
2023/12/11 01:15:29;;;;;;;;;4.50;4.00;;;;;21.55;44.71;99510.70;112229;1256;20707;-31
2023/12/11 01:17:57;;;;;;;;;5.00;5.00;;;;;21.56;44.94;99515.32;112065;1263;18133;-30
2023/12/11 01:20:24;;;;;;;;;7.00;5.00;;;;;21.56;44.74;99512.27;112160;1249;20798;-30
2023/12/11 01:22:52;;;;;;;;;4.00;4.00;;;;;21.55;44.64;99512.23;112064;1263;20885;-30
2023/12/11 01:25:19;;;;;;;;;3.00;3.00;;;;;21.55;44.71;99509.45;112118;1263;19170;-30
2023/12/11 01:27:46;;;;;;;;;7.00;4.00;;;;;21.54;44.50;99515.79;112117;1263;20010;-30
2023/12/11 01:30:14;;;;;;;;;5.00;5.00;;;;;21.55;44.59;99515.98;112107;1263;21316;-30
2023/12/11 01:32:41;;;;;;;;;4.00;4.00;;;;;21.54;44.78;99512.30;112141;1248;19611;-30
2023/12/11 01:35:09;;;;;;;;;5.00;4.00;;;;;21.55;44.80;99515.83;112021;1248;20427;-30
2023/12/11 01:37:36;;;;;;;;;5.00;4.67;;;;;21.54;44.48;99514.38;112124;1248;20688;-30
2023/12/11 01:40:05;;;;;;;;;5.00;5.00;;;;;21.55;44.86;99506.45;111827;1263;202046;-30
2023/12/11 01:42:32;;;;;;;;;5.00;5.00;;;;;21.56;44.63;99501.59;112070;1263;19952;-30
2023/12/11 01:45:00;;;;;;;;;5.00;5.00;;;;;21.54;44.84;99503.96;112184;1263;19520;-30
2023/12/11 01:47:27;;;;;;;;;4.00;4.00;;;;;21.54;44.51;99498.95;112000;1263;18372;-30
2023/12/11 01:49:55;;;;;;;;;7.00;4.00;;;;;21.55;44.66;99498.23;112214;1263;18609;-30
2023/12/11 01:52:22;;;;;;;;;4.00;4.00;;;;;21.54;44.52;99491.33;112047;1247;19631;-30
2023/12/11 01:54:50;;;;;;;;;5.00;4.67;;;;;21.54;44.33;99487.51;112230;1257;19493;-30
2023/12/11 01:57:17;;;;;;;;;7.00;5.00;;;;;21.55;44.54;99491.69;112046;1263;20065;-30
2023/12/11 01:59:44;;;;;;;;;5.00;4.00;;;;;21.54;44.54;99490.61;112267;1247;20728;-30
2023/12/11 02:02:12;;;;;;;;;4.50;4.00;;;;;21.54;44.49;99479.77;112052;1263;19563;-31
2023/12/11 02:04:39;;;;;;;;;5.00;5.00;;;;;21.53;44.37;99474.39;112098;1248;20034;-30
2023/12/11 02:07:07;;;;;;;;;5.00;4.50;;;;;21.55;44.34;99475.55;112085;1263;21748;-30
2023/12/11 02:09:34;;;;;;;;;2.00;2.00;;;;;21.54;44.61;99473.17;111948;1263;18180;-30
2023/12/11 02:12:02;;;;;;;;;5.00;4.00;;;;;21.54;44.55;99475.80;112112;1263;18778;-30
2023/12/11 02:14:29;;;;;;;;;4.50;4.00;;;;;21.54;44.40;99471.92;112009;1247;20775;-31
2023/12/11 02:16:57;;;;;;;;;5.00;5.00;;;;;21.54;44.27;99470.61;112077;1248;19581;-30
2023/12/11 02:19:24;;;;;;;;;4.00;4.00;;;;;21.53;44.52;99478.05;111955;1263;19935;-30
2023/12/11 02:21:52;;;;;;;;;2.00;2.00;;;;;21.53;44.55;99476.95;112091;1248;19360;-31
2023/12/11 02:24:19;;;;;;;;;4.00;4.00;;;;;21.54;44.65;99474.48;112005;1248;19616;-30
2023/12/11 02:26:48;;;;;;;;;4.00;4.00;;;;;21.53;44.53;99471.40;112091;1248;20069;-30
2023/12/11 02:29:15;;;;;;;;;2.00;2.00;;;;;21.52;44.42;99466.30;112148;1263;19340;-30
2023/12/11 02:31:42;;;;;;;;;4.00;4.00;;;;;21.52;44.54;99459.83;112007;1248;20802;-31
2023/12/11 02:34:10;;;;;;;;;4.00;4.00;;;;;21.51;44.39;99452.48;112020;1263;19090;-31
2023/12/11 02:36:37;;;;;;;;;2.00;2.00;;;;;21.51;44.42;99451.06;112043;1248;20770;-30
2023/12/11 02:39:05;;;;;;;;;4.00;4.00;;;;;21.50;44.34;99450.31;112014;1247;19724;-30
2023/12/11 02:41:32;;;;;;;;;5.00;4.50;;;;;21.51;44.45;99439.14;112054;1263;20001;-30
2023/12/11 02:43:59;;;;;;;;;4.00;2.00;;;;;21.52;44.45;99437.70;111996;1248;20739;-30
2023/12/11 02:46:27;;;;;;;;;4.00;4.00;;;;;21.51;44.20;99434.17;112097;1263;18644;-30
2023/12/11 02:48:54;;;;;;;;;2.00;2.00;;;;;21.50;44.41;99434.09;112041;1247;18664;-31
2023/12/11 02:51:22;;;;;;;;;2.00;2.00;;;;;21.50;44.43;99432.62;112089;1263;20572;-30
2023/12/11 02:53:49;;;;;;;;;4.00;4.00;;;;;21.49;44.34;99432.27;111995;1250;19605;-31
2023/12/11 02:56:16;;;;;;;;;3.00;3.00;;;;;21.51;44.45;99426.98;112123;1256;18684;-31
2023/12/11 02:58:44;;;;;;;;;2.00;2.00;;;;;21.50;44.25;99419.55;112031;1263;20828;-31
2023/12/11 03:01:11;;;;;;;;;2.00;2.00;;;;;21.50;44.33;99415.95;112134;1248;19651;-32
2023/12/11 03:03:39;;;;;;;;;2.00;2.00;;;;;21.50;44.26;99412.08;112041;1248;20093;-31
2023/12/11 03:06:06;;;;;;;;;3.33;2.67;;;;;21.48;44.42;99410.05;112140;1263;19320;-32
2023/12/11 03:08:34;;;;;;;;;4.00;4.00;;;;;21.49;44.15;99410.02;112053;1263;18170;-32
2023/12/11 03:11:01;;;;;;;;;2.00;2.00;;;;;21.49;44.38;99402.30;112115;1263;18943;-31
2023/12/11 03:13:29;;;;;;;;;4.00;4.00;;;;;21.50;44.29;99397.20;112062;1257;19671;-31
2023/12/11 03:15:56;;;;;;;;;4.00;2.00;;;;;21.49;44.43;99395.11;112125;1248;19581;-31
2023/12/11 03:18:23;;;;;;;;;4.33;4.00;;;;;21.50;44.17;99394.86;112020;1263;21077;-31
2023/12/11 03:20:51;;;;;;;;;5.00;4.00;;;;;21.50;44.22;99390.50;112076;1248;21997;-32
2023/12/11 03:23:18;;;;;;;;;5.00;4.00;;;;;21.50;44.19;99390.17;111962;1247;18135;-31
2023/12/11 03:25:46;;;;;;;;;2.00;2.00;;;;;21.49;44.44;99393.83;111969;1263;18908;-31
2023/12/11 03:28:13;;;;;;;;;2.00;2.00;;;;;21.49;44.23;99390.08;111990;1263;20676;-31
2023/12/11 03:30:41;;;;;;;;;4.00;4.00;;;;;21.50;44.22;99384.19;111975;1263;18215;-30
2023/12/11 03:33:08;;;;;;;;;2.00;2.00;;;;;21.50;44.06;99385.44;112078;1248;20023;-31
2023/12/11 03:35:36;;;;;;;;;2.00;2.00;;;;;21.48;44.22;99381.29;112126;1248;20765;-31
2023/12/11 03:38:03;;;;;;;;;4.00;2.00;;;;;21.49;44.14;99381.27;111976;1248;19604;-32
2023/12/11 03:40:31;;;;;;;;;4.00;4.00;;;;;21.49;44.27;99379.63;112026;1247;18620;-31
2023/12/11 03:42:58;;;;;;;;;2.00;2.00;;;;;21.48;44.09;99378.77;112039;1249;20731;-31
2023/12/11 03:45:25;;;;;;;;;2.00;2.00;;;;;21.48;44.08;99379.53;112053;1248;19577;-31
2023/12/11 03:47:53;;;;;;;;;2.00;2.00;;;;;21.48;44.00;99380.08;112009;1263;18839;-31
2023/12/11 03:50:20;;;;;;;;;2.00;2.00;;;;;21.48;44.10;99377.35;112029;1263;20749;-31
2023/12/11 03:52:48;;;;;;;;;4.00;4.00;;;;;21.48;44.27;99380.75;112019;1249;18464;-32
2023/12/11 03:55:15;;;;;;;;;4.00;3.33;;;;;21.47;44.11;99376.12;112069;1250;20027;-31
2023/12/11 03:57:42;;;;;;;;;4.00;4.00;;;;;21.46;44.23;99371.25;112071;1248;19356;-31
2023/12/11 04:00:10;;;;;;;;;2.00;2.00;;;;;21.47;44.19;99366.77;112074;1248;19685;-31
2023/12/11 04:02:37;;;;;;;;;4.00;2.00;;;;;21.46;44.10;99367.71;112021;1263;20659;-32
2023/12/11 04:05:05;;;;;;;;;2.00;2.00;;;;;21.45;44.09;99362.10;112094;1263;19598;-32
2023/12/11 04:07:32;;;;;;;;;2.00;2.00;;;;;21.46;43.96;99355.73;112063;1248;19601;-31
2023/12/11 04:09:59;;;;;;;;;2.00;2.00;;;;;21.45;44.16;99353.06;112097;1263;19943;-31
2023/12/11 04:12:27;;;;;;;;;5.00;5.00;;;;;21.47;43.90;99354.38;112076;1250;20947;-31
2023/12/11 04:14:54;;;;;;;;;3.00;3.00;;;;;21.45;43.94;99352.91;112061;1248;19601;-31
2023/12/11 04:17:22;;;;;;;;;4.00;4.00;;;;;21.45;43.85;99352.86;112032;1263;19986;-31
2023/12/11 04:19:49;;;;;;;;;4.00;4.00;;;;;21.46;44.01;99347.17;112044;1263;19374;-31
2023/12/11 04:22:17;;;;;;;;;7.00;5.00;;;;;21.46;44.09;99343.74;111988;1248;19595;-32
2023/12/11 04:24:44;;;;;;;;;4.00;4.00;;;;;21.45;43.77;99337.48;112071;1264;19954;-32
2023/12/11 04:27:11;;;;;;;;;6.33;5.67;;;;;21.45;43.99;99336.07;111993;1249;20774;-32
2023/12/11 04:29:39;;;;;;;;;9.00;6.00;;;;;21.45;43.94;99331.66;112088;1263;19565;-31
2023/12/11 04:32:06;;;;;;;;;4.00;4.00;;;;;21.45;43.91;99337.48;112002;1247;19894;-32
2023/12/11 04:34:34;;;;;;;;;5.00;5.00;;;;;21.45;44.02;99334.98;112078;1263;19344;-32
2023/12/11 04:37:01;;;;;;;;;4.00;4.00;;;;;21.45;43.60;99333.02;112052;1263;18294;-31
2023/12/11 04:39:28;;;;;;;;;5.00;5.00;;;;;21.45;44.00;99333.39;111997;1263;21223;-32
2023/12/11 04:41:56;;;;;;;;;5.00;5.00;;;;;21.45;44.04;99328.92;112067;1263;19358;-31
2023/12/11 04:44:23;;;;;;;;;5.00;5.00;;;;;21.45;43.82;99324.63;111975;1263;19534;-31
2023/12/11 04:46:51;;;;;;;;;7.00;5.00;;;;;21.45;44.06;99328.23;112050;1263;18685;-31
2023/12/11 04:49:18;;;;;;;;;7.00;5.00;;;;;21.45;43.93;99322.02;111999;1263;20753;-31
2023/12/11 04:51:45;;;;;;;;;4.00;4.00;;;;;21.45;44.02;99318.73;112073;1248;19823;-31
2023/12/11 04:54:13;;;;;;;;;6.00;6.00;;;;;21.45;43.93;99315.37;111957;1263;20240;-31
2023/12/11 04:56:41;;;;;;;;;5.00;5.00;;;;;21.44;43.72;99309.34;112137;1263;19372;-31
2023/12/11 04:59:08;;;;;;;;;5.00;5.00;;;;;21.44;43.97;99309.18;111960;1264;19486;-31
2023/12/11 05:01:35;;;;;;;;;5.00;5.00;;;;;21.45;43.90;99308.19;112067;1248;21237;-31
2023/12/11 05:04:03;;;;;;;;;7.00;7.00;;;;;21.44;43.82;99303.30;111994;1263;19721;-31
2023/12/11 05:06:30;;;;;;;;;5.00;5.00;;;;;21.44;44.07;99305.65;112133;1248;19559;-31
2023/12/11 05:08:58;;;;;;;;;7.00;5.50;;;;;21.44;43.96;99298.34;112016;1251;20077;-32
2023/12/11 05:11:25;;;;;;;;;7.67;7.67;;;;;21.44;43.92;99293.98;112132;1263;19487;-31
2023/12/11 05:13:53;;;;;;;;;5.00;5.00;;;;;21.44;43.67;99297.73;111994;1249;20807;-31
2023/12/11 05:16:20;;;;;;;;;7.50;7.00;;;;;21.44;43.86;99295.66;112145;1263;18631;-31
2023/12/11 05:18:48;;;;;;;;;5.00;5.00;;;;;21.44;43.91;99297.86;111967;1263;21699;-31
2023/12/11 05:21:15;;;;;;;;;5.00;5.00;;;;;21.43;43.72;99288.95;112165;1248;19743;-32
2023/12/11 05:23:43;;;;;;;;;8.00;7.50;;;;;21.43;43.71;99285.94;111974;1250;18624;-31
2023/12/11 05:26:10;;;;;;;;;8.00;7.00;;;;;21.43;43.66;99281.33;112155;1263;19547;-32
2023/12/11 05:28:37;;;;;;;;;6.00;6.00;;;;;21.43;43.73;99278.42;111994;1263;18155;-32
2023/12/11 05:31:05;;;;;;;;;7.33;7.33;;;;;21.42;43.78;99272.95;112166;1263;20113;-31
2023/12/11 05:33:32;;;;;;;;;8.00;7.50;;;;;21.41;43.89;99270.70;112028;1248;21073;-31
2023/12/11 05:36:00;;;;;;;;;7.33;7.33;;;;;21.40;43.79;99264.67;112218;1250;19561;-32
2023/12/11 05:38:27;;;;;;;;;8.00;7.00;;;;;21.40;43.73;99259.31;112046;1263;19948;-31
2023/12/11 05:40:54;;;;;;;;;8.33;7.67;;;;;21.42;43.62;99259.16;112143;1263;20719;-32
2023/12/11 05:43:22;;;;;;;;;12.00;10.67;;;;;21.41;43.93;99259.29;112099;1250;19637;-31
2023/12/11 05:45:49;;;;;;;;;8.00;8.00;;;;;21.42;43.83;99255.03;112143;1248;20025;-31
2023/12/11 05:48:18;;;;;;;;;7.00;7.00;;;;;21.42;43.75;99246.86;112106;1248;20835;-31
2023/12/11 05:50:46;;;;;;;;;8.00;7.00;;;;;21.42;43.59;99241.58;112143;1248;19652;-32
2023/12/11 05:53:13;;;;;;;;;9.67;9.67;;;;;21.42;43.69;99241.99;111964;1263;18871;-31
2023/12/11 05:55:41;;;;;;;;;10.67;10.00;;;;;21.42;43.64;99242.22;112174;1263;22096;-31
2023/12/11 05:58:08;;;;;;;;;10.00;7.00;;;;;21.42;43.78;99232.58;111999;1263;19170;-32
2023/12/11 06:00:35;;;;;;;;;10.33;9.00;;;;;21.41;43.62;99231.99;112190;1247;20073;-32
2023/12/11 06:03:03;;;;;;;;;8.00;8.00;;;;;21.40;43.72;99230.57;112067;1248;20772;-32
2023/12/11 06:05:30;;;;;;;;;11.00;9.50;;;;;21.41;43.45;99226.89;112189;1263;20047;-32
2023/12/11 06:07:57;;;;;;;;;9.00;7.50;;;;;21.41;43.59;99224.36;112040;1251;20134;-31
2023/12/11 06:10:25;;;;;;;;;9.33;9.33;;;;;21.42;43.47;99216.13;112224;1263;19375;-31
2023/12/11 06:12:52;;;;;;;;;10.00;8.67;;;;;21.41;43.36;99208.20;112036;1263;19525;-31
2023/12/11 06:15:20;;;;;;;;;7.33;7.00;;;;;21.41;43.69;99205.35;112224;1263;18711;-31
2023/12/11 06:17:47;;;;;;;;;10.00;10.00;;;;;21.42;43.47;99198.69;112044;1263;19421;-31
2023/12/11 06:20:15;;;;;;;;;8.00;8.00;;;;;21.40;43.36;99197.52;112221;1263;18140;-31
2023/12/11 06:22:42;;;;;;;;;8.00;7.50;;;;;21.40;43.58;99192.69;112046;1263;19950;-31
2023/12/11 06:25:09;;;;;;;;;8.00;8.00;;;;;21.41;43.59;99193.98;112197;1263;19336;-31
2023/12/11 06:27:37;;;;;;;;;9.33;8.00;;;;;21.41;43.36;99189.02;112080;1250;19970;-31
2023/12/11 06:30:05;;;;;;;;;10.00;10.00;;;;;21.46;43.41;99186.38;112116;1263;19977;-32
2023/12/11 06:32:33;;;;;;;;;10.00;10.00;;;;;21.55;43.13;99185.34;112016;1247;21885;-31
2023/12/11 06:35:00;;;;;;;;;10.00;10.00;;;;;21.55;43.44;99180.91;112200;1247;18541;-31
2023/12/11 06:37:28;;;;;;;;;9.67;8.00;;;;;21.58;43.68;99177.66;112047;1256;20023;-31
2023/12/11 06:39:55;;;;;;;;;9.33;9.33;;;;;21.58;43.89;99175.06;112182;1247;21386;-31
2023/12/11 06:42:23;;;;;;;;;8.00;8.00;;;;;21.62;43.73;99173.48;112034;1247;18740;-31
2023/12/11 06:44:50;;;;;;;;;8.67;8.00;;;;;21.63;44.08;99172.07;112225;1263;18632;-32
2023/12/11 06:47:18;;;;;;;;;7.00;7.00;;;;;21.63;44.80;99173.45;112046;1248;20758;-32
2023/12/11 06:49:46;;;;;;;;;5.00;5.00;;;;;21.58;44.99;99164.86;112212;1263;18147;-31
2023/12/11 06:52:15;;;;;;;;;;;;;;;21.62;45.48;99156.20;112006;1247;20087;-31
2023/12/11 06:54:43;;;;;;;;;8.00;7.50;;;;;21.55;45.91;99158.09;112033;1250;20776;-31
2023/12/11 06:57:11;;;;;;;;;10.00;8.00;;;;;21.58;45.45;99153.05;112218;1263;19153;-32
2023/12/11 06:59:38;;;;;;;;;7.00;7.00;;;;;21.61;45.51;99152.95;111997;1247;19951;-32
2023/12/11 07:02:06;;;;;;;;;7.00;7.00;;;;;21.55;46.00;99149.47;112156;1256;19458;-32
2023/12/11 07:04:33;;;;;;;;;4.50;4.50;;;;;21.52;45.93;99152.44;111932;1264;19348;-31
2023/12/11 07:07:01;;;;;;;;;10.00;7.00;;;;;21.49;46.06;99148.48;112151;1263;18793;-31
2023/12/11 07:09:29;;;;;;;;;5.00;5.00;;;;;21.45;45.79;99142.83;111975;1247;22163;-31
2023/12/11 07:11:56;;;;;;;;;7.00;7.00;;;;;21.43;45.25;99147.17;112099;1247;20377;-31
2023/12/11 07:14:24;;;;;;;;;7.00;7.00;;;;;21.42;45.05;99144.54;111995;1249;21516;-32
2023/12/11 07:16:51;;;;;;;;;10.00;7.00;;;;;21.47;44.70;99140.91;112101;1247;21984;-32
2023/12/11 07:19:19;;;;;;;;;10.00;8.00;;;;;21.44;44.58;99138.65;112025;1263;18148;-31
2023/12/11 07:21:47;;;;;;;;;8.00;8.00;;;;;21.44;44.26;99134.52;112098;1263;21507;-31
2023/12/11 07:24:14;;;;;;;;;5.00;5.00;;;;;21.51;44.03;99125.92;112020;1263;19360;-31
2023/12/11 07:26:41;;;;;;;;;7.00;6.50;;;;;21.50;44.31;99122.30;112129;1247;19630;-31
2023/12/11 07:29:09;;;;;;;;;5.00;5.00;;;;;21.52;43.75;99118.17;111996;1263;19944;-31
2023/12/11 07:31:36;;;;;;;;;7.00;7.00;;;;;21.54;43.66;99117.19;112128;1247;22273;-30
2023/12/11 07:34:03;;;;;;;;;5.00;4.50;;;;;21.53;43.58;99112.02;111974;1263;20387;-31
2023/12/11 07:36:31;;;;;;;;;6.50;6.50;;;;;21.54;43.29;99109.23;112135;1263;19939;-31
2023/12/11 07:38:58;;;;;;;;;6.00;6.00;;;;;21.50;43.26;99104.92;111991;1247;20797;-32
2023/12/11 07:41:26;;;;;;;;;5.00;5.00;;;;;21.38;43.52;99101.55;112144;1263;19430;-31
2023/12/11 07:43:53;;;;;;;;;9.50;8.00;;;;;21.36;43.56;99097.46;111981;1247;18639;-31
2023/12/11 07:46:21;;;;;;;;;7.00;5.00;;;;;21.36;43.59;99098.40;112069;1263;19703;-32
2023/12/11 07:48:49;;;;;;;;;5.00;5.00;;;;;21.36;43.62;99091.73;112028;1256;18533;-31
2023/12/11 07:51:16;;;;;;;;;7.00;7.00;;;;;21.37;43.42;99089.49;112122;1263;20515;-31
2023/12/11 07:53:44;;;;;;;;;7.50;7.00;;;;;21.39;43.01;99087.48;111982;1263;19536;-31
2023/12/11 07:56:13;;;;;;;;;8.00;7.00;;;;;21.49;43.18;99085.02;112124;1247;18176;-32
2023/12/11 07:58:40;;;;;;;;;7.50;7.00;;;;;21.50;43.34;99083.62;111976;1248;20018;-32
2023/12/11 08:01:08;;;;;;;;;6.00;5.50;;;;;21.47;43.64;99080.20;112008;1263;20678;-31
2023/12/11 08:03:35;;;;;;;;;7.00;7.00;;;;;21.46;43.61;99078.57;112018;1248;19796;-31
2023/12/11 08:06:03;;;;;;;;;8.00;7.00;;;;;21.48;43.92;99081.49;112027;1263;18655;-31
2023/12/11 08:08:30;;;;;;;;;8.00;7.00;;;;;21.55;44.24;99078.89;112013;1249;21053;-31
2023/12/11 08:10:57;;;;;;;;;8.00;8.00;;;;;21.57;44.75;99071.44;112022;1248;19588;-31
2023/12/11 08:13:25;;;;;;;;;5.00;5.00;;;;;21.58;44.87;99069.83;112040;1248;19960;-31
2023/12/11 08:15:52;;;;;;;;;6.33;6.33;;;;;21.62;45.44;99067.15;112053;1263;19412;-31
2023/12/11 08:18:20;;;;;;;;;8.00;5.00;;;;;21.55;46.15;99064.24;112075;1248;19609;-31
2023/12/11 08:20:47;;;;;;;;;5.00;5.00;;;;;21.54;46.01;99065.49;112076;1247;20222;-31
2023/12/11 08:23:15;;;;;;;;;5.00;5.00;;;;;21.51;45.95;99056.09;112057;1250;20771;-31
2023/12/11 08:25:42;;;;;;;;;4.50;4.50;;;;;21.55;45.62;99051.55;112034;1248;20864;-31
2023/12/11 08:28:10;;;;;;;;;7.00;7.00;;;;;21.57;45.54;99051.94;112075;1263;19895;-31
2023/12/11 08:30:37;;;;;;;;;7.00;5.00;;;;;21.57;45.77;99048.00;112061;1263;19309;-31
2023/12/11 08:33:05;;;;;;;;;4.00;4.00;;;;;21.60;45.51;99042.08;112063;1256;19583;-31
2023/12/11 08:35:32;;;;;;;;;5.00;5.00;;;;;21.55;45.58;99041.30;112047;1263;19987;-31
2023/12/11 08:37:59;;;;;;;;;5.00;4.00;;;;;21.55;45.70;99040.72;112063;1256;19561;-32
2023/12/11 08:40:27;;;;;;;;;7.00;5.00;;;;;21.58;45.69;99040.95;112073;1263;19501;-31
2023/12/11 08:42:54;;;;;;;;;7.00;7.00;;;;;21.55;45.68;99035.30;112070;1263;18631;-31
2023/12/11 08:45:22;;;;;;;;;5.00;5.00;;;;;21.53;45.54;99041.25;112081;1263;19346;-31
2023/12/11 08:47:49;;;;;;;;;8.00;7.00;;;;;21.51;45.56;99043.05;112034;1263;19543;-31
2023/12/11 08:50:17;;;;;;;;;4.00;4.00;;;;;21.51;45.73;99033.46;111969;1260;21349;-32
2023/12/11 08:52:44;;;;;;;;;7.00;5.00;;;;;21.49;45.80;99026.12;112074;1247;20904;-31
2023/12/11 08:55:12;;;;;;;;;5.00;5.00;;;;;21.48;45.72;99027.40;112052;1263;19698;-31
2023/12/11 08:57:39;;;;;;;;;5.00;5.00;;;;;21.48;45.60;99029.89;112043;1263;21135;-32
2023/12/11 09:00:07;;;;;;;;;4.00;4.00;;;;;21.47;45.61;99025.38;112018;1256;19281;-32
2023/12/11 09:02:34;;;;;;;;;4.33;4.33;;;;;21.47;45.70;99025.14;112086;1251;21187;-31
2023/12/11 09:05:01;;;;;;;;;4.00;4.00;;;;;21.47;45.65;99028.20;111959;1257;20105;-31
2023/12/11 09:07:29;;;;;;;;;11.00;10.00;;;;;21.55;45.47;99019.78;111948;1247;20866;-31
2023/12/11 09:09:56;;;;;;;;;19.00;16.50;;;;;21.53;45.77;99021.41;111873;1263;19387;-31
2023/12/11 09:12:25;;;;;;;;;61.33;46.33;;;;;21.51;45.88;99023.72;111932;1263;18715;-31
2023/12/11 09:14:52;;;;;;;;;111.50;84.00;;;;;21.56;45.99;99018.19;111922;1247;20707;-31
2023/12/11 09:17:20;;;;;;;;;104.50;71.00;;;;;21.57;45.91;99018.85;111911;1256;19889;-31
2023/12/11 09:19:47;;;;;;;;;87.50;66.50;;;;;21.56;46.09;99014.05;111944;1247;18738;-31
2023/12/11 09:22:15;;;;;;;;;81.50;59.00;;;;;21.56;46.13;99015.27;111893;1247;19430;-30
2023/12/11 09:24:43;;;;;;;;;75.00;56.00;;;;;21.59;46.42;99016.88;111902;1263;21672;-31
2023/12/11 09:27:10;;;;;;;;;76.00;56.00;;;;;21.62;46.18;99016.69;111935;1247;20120;-31
2023/12/11 09:29:37;;;;;;;;;63.00;46.33;;;;;21.61;46.26;99013.39;111866;1247;20800;-31
2023/12/11 09:32:05;;;;;;;;;59.50;46.50;;;;;21.62;46.12;99010.25;111905;1248;19986;-30
2023/12/11 09:34:32;;;;;;;;;54.00;44.00;;;;;21.66;46.12;99012.15;111926;1247;21489;-31
2023/12/11 09:37:00;;;;;;;;;42.00;36.00;;;;;21.68;46.41;99009.98;112173;1263;19368;-31
2023/12/11 09:39:27;;;;;;;;;41.00;38.00;;;;;21.63;46.58;99004.67;111996;1247;18614;-31
2023/12/11 09:41:55;;;;;;;;;30.00;29.00;;;;;21.71;46.59;99003.34;112176;1263;20067;-31
2023/12/11 09:44:22;;;;;;;;;33.00;28.00;;;;;21.66;46.78;99002.73;112023;1263;19746;-31
2023/12/11 09:46:49;;;;;;;;;32.00;26.50;;;;;21.62;47.28;98998.33;112177;1251;19908;-31
2023/12/11 09:49:17;;;;;;;;;28.50;25.00;;;;;21.64;47.08;98996.63;112071;1247;20586;-29
2023/12/11 09:51:44;;;;;;;;;28.00;24.00;;;;;21.64;47.13;98989.48;112122;1263;19310;-29
2023/12/11 09:54:12;;;;;;;;;24.00;23.00;;;;;21.67;47.49;98998.14;112010;1263;18902;-29
2023/12/11 09:56:39;;;;;;;;;28.00;22.00;;;;;21.69;47.31;98994.80;112089;1247;20434;-29
2023/12/11 09:59:08;;;;;;;;;23.50;19.00;;;;;21.72;47.23;98990.16;112064;1249;19575;-29
2023/12/11 10:01:36;;;;;;;;;17.00;16.00;;;;;21.70;47.36;98991.44;112070;1263;19989;-29
2023/12/11 10:04:03;;;;;;;;;18.00;16.00;;;;;21.67;47.11;98991.92;111964;1263;18804;-30
2023/12/11 10:06:31;;;;;;;;;16.00;13.50;;;;;21.67;47.01;98993.42;112109;1249;20753;-29
2023/12/11 10:08:58;;;;;;;;;14.00;12.33;;;;;21.74;46.97;98991.80;111968;1263;18537;-30
2023/12/11 10:11:27;;;;;;;;;13.50;13.50;;;;;21.75;46.97;98984.88;112110;1251;20141;-31
2023/12/11 10:13:55;;;;;;;;;16.33;14.67;;;;;21.72;46.98;98983.42;112202;1247;20827;-30
2023/12/11 10:16:22;;;;;;;;;13.50;10.00;;;;;21.68;47.02;98981.54;112039;1263;18743;-30
2023/12/11 10:18:50;;;;;;;;;12.00;10.50;;;;;21.68;47.06;98977.81;112129;1263;18717;-30
2023/12/11 10:21:17;;;;;;;;;14.00;13.00;;;;;21.66;46.85;98975.16;112038;1257;19510;-30
2023/12/11 10:23:45;;;;;;;;;11.00;11.00;;;;;21.65;46.88;98973.33;112107;1251;19920;-30
2023/12/11 10:26:12;;;;;;;;;11.00;10.00;;;;;21.68;47.25;98973.30;112035;1263;20032;-29
2023/12/11 10:28:40;;;;;;;;;11.00;8.00;;;;;21.73;46.99;98974.35;112175;1263;20735;-29
2023/12/11 10:31:07;;;;;;;;;11.00;10.00;;;;;21.71;46.72;98968.73;112002;1248;20011;-30
2023/12/11 10:33:34;;;;;;;;;13.33;13.00;;;;;21.70;46.84;98969.80;112103;1248;20048;-29
2023/12/11 10:36:02;;;;;;;;;8.00;8.00;;;;;21.69;46.98;98970.70;112061;1248;21912;-30
2023/12/11 10:38:29;;;;;;;;;11.00;8.00;;;;;21.68;46.81;98972.91;112089;1263;19884;-30
2023/12/11 10:40:57;;;;;;;;;8.00;8.00;;;;;21.71;47.15;98973.59;112060;1263;19904;-30
2023/12/11 10:43:24;;;;;;;;;10.00;8.00;;;;;21.71;46.91;98975.45;112130;1263;19377;-30
2023/12/11 10:45:52;;;;;;;;;10.00;9.00;;;;;21.69;46.62;98972.62;112097;1263;18464;-30
2023/12/11 10:48:20;;;;;;;;;8.00;7.50;;;;;21.70;46.40;98973.77;112096;1263;21434;-31
2023/12/11 10:50:47;;;;;;;;;13.00;10.00;;;;;21.71;46.16;98970.09;112038;1248;22129;-30
2023/12/11 10:53:15;;;;;;;;;14.00;13.00;;;;;21.68;46.17;98971.79;112234;1263;18452;-30
2023/12/11 10:55:42;;;;;;;;;11.00;7.00;;;;;21.66;45.71;98973.45;112065;1248;20191;-31
2023/12/11 10:58:10;;;;;;;;;10.00;9.33;;;;;21.65;45.84;98972.56;112215;1263;20702;-31
2023/12/11 11:00:37;;;;;;;;;17.00;14.00;;;;;21.64;45.64;98970.79;112038;1247;20939;-30
2023/12/11 11:03:04;;;;;;;;;11.00;11.00;;;;;21.57;45.65;98970.08;112162;1263;20006;-30
2023/12/11 11:05:32;;;;;;;;;10.33;8.67;;;;;21.53;45.81;98969.08;112071;1255;19338;-30
2023/12/11 11:07:59;;;;;;;;;7.00;7.00;;;;;21.55;45.47;98973.57;112146;1263;18562;-31
2023/12/11 11:10:27;;;;;;;;;7.00;7.00;;;;;21.56;45.51;98976.77;112106;1263;18956;-30
2023/12/11 11:12:54;;;;;;;;;8.00;7.00;;;;;21.61;45.13;98978.48;112107;1263;20854;-30
2023/12/11 11:15:22;;;;;;;;;10.00;8.00;;;;;21.64;45.17;98975.83;112098;1247;19527;-30
2023/12/11 11:17:49;;;;;;;;;10.00;8.00;;;;;21.69;44.92;98976.67;112010;1263;18872;-30
2023/12/11 11:20:17;;;;;;;;;8.00;8.00;;;;;21.69;44.85;98975.13;112141;1256;20788;-30
2023/12/11 11:22:44;;;;;;;;;7.00;7.00;;;;;21.72;44.85;98976.44;111992;1248;19905;-30